Time;durP1;ratioP1;P1;durP2;ratioP2;P2;SDS_P1;SDS_P2;PMS_P1;PMS_P2;Temp;Humidity;BMP_temperature;BMP_pressure;BME280_temperature;BME280_humidity;BME280_pressure;Samples;Min_cycle;Max_cycle;Signal;HPM_P1;HPM_P2
2021/01/25 00:02:13;;;;;;;12.45;7.72;;;3.30;92.90;;;;;;5027828;28;20080;-91
2021/01/25 00:04:41;;;;;;;13.63;7.90;;;3.30;92.90;;;;;;5001413;28;20025;-91
2021/01/25 00:07:07;;;;;;;14.65;8.75;;;3.30;93.00;;;;;;5015973;28;20018;-90
2021/01/25 00:09:33;;;;;;;13.98;8.13;;;3.20;92.90;;;;;;5016469;28;20026;-90
2021/01/25 00:11:59;;;;;;;14.32;8.65;;;3.30;93.00;;;;;;4999924;28;20060;-91
2021/01/25 00:14:24;;;;;;;15.52;9.35;;;3.20;92.90;;;;;;4983972;28;20132;-91
2021/01/25 00:16:50;;;;;;;13.15;8.57;;;3.20;93.00;;;;;;5016140;28;20057;-89
2021/01/25 00:19:16;;;;;;;13.75;8.35;;;3.20;93.30;;;;;;4983060;28;20028;-91
2021/01/25 00:21:43;;;;;;;16.90;9.23;;;3.20;93.00;;;;;;5033223;28;20026;-90
2021/01/25 00:24:09;;;;;;;10.43;7.07;;;3.20;93.10;;;;;;5015811;28;20024;-90
2021/01/25 00:26:35;;;;;;;11.32;7.72;;;3.20;93.10;;;;;;4999182;28;20034;-91
2021/01/25 00:29:00;;;;;;;12.52;7.65;;;3.20;93.10;;;;;;5015352;28;20025;-91
2021/01/25 00:31:26;;;;;;;13.00;7.50;;;3.20;93.10;;;;;;4983264;28;20036;-91
2021/01/25 00:33:52;;;;;;;12.32;7.38;;;3.20;93.20;;;;;;4999809;28;20037;-91
2021/01/25 00:36:18;;;;;;;13.57;8.05;;;3.20;93.20;;;;;;5015324;28;20061;-89
2021/01/25 00:38:43;;;;;;;13.25;7.68;;;3.20;93.20;;;;;;4999404;28;20074;-90
2021/01/25 00:41:09;;;;;;;14.93;8.18;;;3.20;93.20;;;;;;5016443;28;20097;-92
2021/01/25 00:43:35;;;;;;;11.80;7.55;;;3.20;93.20;;;;;;4998133;28;20037;-91
2021/01/25 00:46:03;;;;;;;11.95;7.53;;;3.20;93.30;;;;;;4982971;28;20034;-91
2021/01/25 00:48:29;;;;;;;12.57;7.45;;;3.20;93.20;;;;;;4998860;28;20025;-90
2021/01/25 00:50:55;;;;;;;12.90;7.40;;;3.20;93.20;;;;;;4999462;28;20071;-89
2021/01/25 00:53:20;;;;;;;15.18;8.65;;;3.20;93.30;;;;;;5016568;28;20041;-91
2021/01/25 00:55:46;;;;;;;13.88;8.52;;;3.20;93.20;;;;;;4999662;28;20025;-90
2021/01/25 00:58:12;;;;;;;16.55;10.15;;;3.20;93.20;;;;;;5033334;28;20017;-91
2021/01/25 01:00:38;;;;;;;20.77;10.68;;;3.20;93.20;;;;;;5015372;28;20131;-92
2021/01/25 01:03:04;;;;;;;22.75;10.88;;;3.10;93.20;;;;;;5006776;28;20021;-91
2021/01/25 01:05:30;;;;;;;19.08;10.43;;;3.10;93.20;;;;;;5010612;28;20021;-90
2021/01/25 01:07:55;;;;;;;18.92;9.05;;;3.10;93.20;;;;;;5014893;28;20018;-89
2021/01/25 01:10:23;;;;;;;17.90;10.20;;;3.10;93.30;;;;;;5032264;28;20086;-91
2021/01/25 01:12:51;;;;;;;17.23;10.05;;;3.10;93.40;;;;;;5015512;28;20021;-91
2021/01/25 01:15:17;;;;;;;15.70;9.25;;;3.10;93.40;;;;;;5033054;28;20095;-91
2021/01/25 01:17:43;;;;;;;14.43;8.50;;;3.10;93.40;;;;;;5032517;28;20025;-92
2021/01/25 01:20:12;;;;;;;16.58;10.00;;;3.10;93.50;;;;;;5018686;28;20041;-90
2021/01/25 01:22:38;;;;;;;19.58;10.80;;;3.10;93.50;;;;;;5005209;28;20034;-90
2021/01/25 01:25:06;;;;;;;18.80;11.13;;;3.10;93.50;;;;;;5004662;28;20053;-90
2021/01/25 01:27:32;;;;;;;23.17;11.05;;;3.10;93.50;;;;;;5018993;28;20639;-92
2021/01/25 01:29:58;;;;;;;21.83;11.45;;;3.10;93.80;;;;;;5018431;28;20052;-90
2021/01/25 01:32:24;;;;;;;19.30;10.82;;;3.00;93.50;;;;;;5013482;28;20117;-91
2021/01/25 01:34:50;;;;;;;21.52;12.07;;;3.00;93.50;;;;;;5001825;28;20100;-90
2021/01/25 01:37:16;;;;;;;25.88;12.73;;;3.00;93.50;;;;;;5001602;28;20080;-91
2021/01/25 01:39:44;;;;;;;20.30;12.35;;;3.00;93.60;;;;;;5035500;28;20025;-92
2021/01/25 01:42:19;;;;;;;22.60;11.90;;;3.00;93.60;;;;;;5001225;28;20030;-92
2021/01/25 01:44:45;;;;;;;22.25;11.85;;;3.00;93.60;;;;;;5031986;28;20031;-92
2021/01/25 01:47:17;;;;;;;27.17;14.10;;;3.00;93.60;;;;;;4997809;28;20105;-91
2021/01/25 01:49:43;;;;;;;23.83;12.55;;;3.00;93.60;;;;;;5008992;28;20021;-91
2021/01/25 01:52:09;;;;;;;27.48;12.75;;;3.00;93.60;;;;;;5000961;28;20037;-91
2021/01/25 01:54:35;;;;;;;26.50;13.20;;;3.00;93.60;;;;;;4999824;28;20128;-90
2021/01/25 01:57:01;;;;;;;25.52;13.02;;;3.00;93.70;;;;;;5001177;28;20065;-91
2021/01/25 01:59:26;;;;;;;23.13;11.55;;;3.00;93.70;;;;;;5008390;28;20038;-90
2021/01/25 02:01:52;;;;;;;20.58;12.40;;;3.00;93.70;;;;;;5001180;28;20432;-91
2021/01/25 02:04:18;;;;;;;20.15;11.93;;;2.90;93.70;;;;;;5001534;28;20394;-91
2021/01/25 02:06:45;;;;;;;20.70;12.70;;;2.90;94.00;;;;;;5001503;28;20022;-91
2021/01/25 02:09:12;;;;;;;19.67;12.07;;;2.90;93.80;;;;;;4996873;28;20107;-91
2021/01/25 02:11:39;;;;;;;18.05;11.60;;;3.00;93.80;;;;;;5009827;28;20063;-91
2021/01/25 02:14:08;;;;;;;20.20;11.70;;;3.00;93.80;;;;;;5001444;28;20046;-91
2021/01/25 02:16:41;;;;;;;18.30;11.90;;;3.00;93.80;;;;;;5001766;28;20036;-91
2021/01/25 02:19:14;;;;;;;19.60;12.27;;;3.00;93.80;;;;;;4985472;28;20026;-91
2021/01/25 02:22:01;;;;;;;19.75;12.90;;;3.00;93.80;;;;;;5012074;28;20032;-92
2021/01/25 02:24:39;;;;;;;18.10;11.93;;;3.00;93.90;;;;;;5014351;28;20105;-92
2021/01/25 02:27:31;;;;;;;22.10;13.15;;;2.90;93.90;;;;;;5013816;28;20026;-92
2021/01/25 02:29:59;;;;;;;17.33;11.35;;;3.00;93.90;;;;;;5013109;28;20029;-92
2021/01/25 02:32:26;;;;;;;20.92;11.65;;;3.00;93.90;;;;;;5016973;28;20544;-91
2021/01/25 02:34:54;;;;;;;21.10;12.07;;;3.00;93.90;;;;;;5039081;28;20049;-92
2021/01/25 02:37:22;;;;;;;19.02;11.90;;;3.00;94.00;;;;;;5020936;28;20121;-92
2021/01/25 02:39:50;;;;;;;19.90;11.90;;;2.90;94.00;;;;;;5026032;28;20033;-91
2021/01/25 02:42:16;;;;;;;17.67;11.60;;;3.00;94.00;;;;;;5054510;28;20064;-91
2021/01/25 02:44:43;;;;;;;18.38;11.88;;;3.00;94.00;;;;;;5014559;28;20033;-92
2021/01/25 02:47:11;;;;;;;19.60;12.05;;;3.00;94.00;;;;;;5001066;28;20030;-91
2021/01/25 02:49:38;;;;;;;20.35;12.52;;;3.00;94.00;;;;;;5031230;28;20104;-92
2021/01/25 02:52:07;;;;;;;19.17;12.05;;;3.00;94.00;;;;;;5028130;28;20036;-92
2021/01/25 02:54:33;;;;;;;20.33;12.75;;;3.00;94.10;;;;;;5040544;28;20040;-91
2021/01/25 02:56:59;;;;;;;19.63;12.73;;;3.00;94.00;;;;;;5027504;28;20034;-91
2021/01/25 02:59:26;;;;;;;22.95;12.57;;;3.00;94.10;;;;;;5018239;28;20051;-91
2021/01/25 03:01:52;;;;;;;21.65;12.48;;;3.00;94.10;;;;;;5036811;28;20036;-91
2021/01/25 03:04:18;;;;;;;18.02;12.27;;;2.90;94.10;;;;;;5036071;28;20116;-91
2021/01/25 03:06:45;;;;;;;18.90;12.27;;;2.90;94.10;;;;;;5016278;28;20029;-92
2021/01/25 03:09:10;;;;;;;18.83;11.80;;;2.90;94.10;;;;;;5005125;28;20030;-91
2021/01/25 03:11:40;;;;;;;18.33;11.15;;;2.90;94.10;;;;;;4998200;28;20504;-92
2021/01/25 03:14:07;;;;;;;18.33;12.05;;;3.00;94.10;;;;;;5000037;28;20036;-91
2021/01/25 03:16:33;;;;;;;19.35;11.38;;;3.00;94.10;;;;;;5017695;28;20052;-91
2021/01/25 03:18:59;;;;;;;18.75;11.90;;;2.90;94.10;;;;;;5028067;28;20021;-91
2021/01/25 03:21:24;;;;;;;20.13;11.68;;;2.90;94.10;;;;;;5013280;28;20032;-92
2021/01/25 03:23:52;;;;;;;19.98;11.68;;;2.90;94.10;;;;;;5013638;28;20030;-90
2021/01/25 03:26:18;;;;;;;16.50;10.68;;;2.90;94.10;;;;;;5029166;28;20107;-89
2021/01/25 03:28:43;;;;;;;20.55;12.13;;;2.90;94.10;;;;;;5016271;28;20022;-89
2021/01/25 03:31:09;;;;;;;18.50;11.40;;;2.90;94.10;;;;;;4999716;28;20044;-89
2021/01/25 03:33:35;;;;;;;23.23;12.52;;;2.90;94.10;;;;;;5024449;28;20136;-90
2021/01/25 03:36:00;;;;;;;21.20;11.73;;;2.90;94.10;;;;;;5013111;28;20443;-88
2021/01/25 03:38:26;;;;;;;17.00;10.95;;;2.90;94.10;;;;;;5038833;28;20050;-91
2021/01/25 03:40:52;;;;;;;19.02;11.68;;;2.90;94.10;;;;;;5035335;28;20095;-90
2021/01/25 03:43:17;;;;;;;19.27;11.88;;;2.90;94.10;;;;;;5027912;28;20041;-90
2021/01/25 03:45:43;;;;;;;19.13;12.15;;;2.90;94.30;;;;;;4996141;28;20057;-90
2021/01/25 03:48:09;;;;;;;16.60;10.75;;;2.90;94.10;;;;;;5016498;28;20474;-90
2021/01/25 03:50:34;;;;;;;17.38;10.88;;;2.80;94.00;;;;;;4983874;28;20026;-90
2021/01/25 03:53:03;;;;;;;18.65;11.07;;;2.80;94.10;;;;;;5028637;28;20033;-90
2021/01/25 03:55:29;;;;;;;18.45;11.20;;;2.90;94.10;;;;;;5000296;28;20049;-91
2021/01/25 03:57:56;;;;;;;20.08;12.05;;;2.80;94.10;;;;;;5047650;28;20033;-90
2021/01/25 04:00:22;;;;;;;16.85;10.98;;;2.80;94.10;;;;;;5032360;28;20123;-91
2021/01/25 04:02:48;;;;;;;20.08;11.88;;;2.80;94.10;;;;;;5015755;28;20116;-90
2021/01/25 04:05:14;;;;;;;17.95;11.63;;;2.80;94.10;;;;;;4998973;28;20540;-90
2021/01/25 04:07:40;;;;;;;19.02;12.32;;;2.80;94.10;;;;;;5001299;28;20053;-90
2021/01/25 04:10:07;;;;;;;15.68;10.63;;;2.80;94.20;;;;;;5026566;28;20041;-90
2021/01/25 04:12:33;;;;;;;16.63;10.70;;;2.90;94.20;;;;;;5046815;28;20037;-90
2021/01/25 04:14:58;;;;;;;17.83;11.38;;;2.90;94.20;;;;;;5018668;28;20033;-90
2021/01/25 04:17:25;;;;;;;15.38;10.13;;;2.90;94.20;;;;;;5032663;28;20389;-90
2021/01/25 04:19:50;;;;;;;17.88;10.40;;;2.90;94.20;;;;;;5044731;28;20029;-90
2021/01/25 04:22:16;;;;;;;15.77;9.77;;;2.80;94.10;;;;;;5024929;28;20036;-89
2021/01/25 04:24:42;;;;;;;17.05;10.70;;;2.80;94.20;;;;;;5015477;28;20469;-90
2021/01/25 04:27:11;;;;;;;17.52;10.57;;;2.90;94.20;;;;;;4981870;28;20037;-90
2021/01/25 04:29:38;;;;;;;15.63;10.18;;;2.80;94.10;;;;;;5035246;28;20090;-90
2021/01/25 04:32:04;;;;;;;14.38;9.77;;;2.80;94.20;;;;;;5022573;28;20033;-90
2021/01/25 04:34:29;;;;;;;16.20;9.82;;;2.80;94.10;;;;;;5029900;28;20032;-90
2021/01/25 04:36:55;;;;;;;18.10;11.00;;;2.80;94.10;;;;;;5020777;28;20058;-90
2021/01/25 04:39:21;;;;;;;15.80;10.27;;;2.80;94.10;;;;;;5015782;28;20136;-91
2021/01/25 04:41:49;;;;;;;16.15;9.80;;;2.80;94.10;;;;;;5015803;28;20029;-90
2021/01/25 04:44:17;;;;;;;15.60;9.73;;;2.80;94.00;;;;;;5015494;28;20033;-89
2021/01/25 04:46:45;;;;;;;17.45;10.50;;;2.80;94.00;;;;;;5011933;28;20402;-91
2021/01/25 04:49:15;;;;;;;16.17;10.27;;;2.80;94.30;;;;;;4998832;28;20047;-90
2021/01/25 04:51:45;;;;;;;16.55;10.23;;;2.80;94.00;;;;;;5053573;28;20102;-92
2021/01/25 04:54:13;;;;;;;16.17;10.55;;;2.80;94.30;;;;;;5022319;28;20018;-91
2021/01/25 04:56:40;;;;;;;16.20;10.27;;;2.70;94.00;;;;;;5034143;28;20037;-91
2021/01/25 04:59:05;;;;;;;16.70;11.52;;;2.70;94.00;;;;;;5019056;28;20033;-90
2021/01/25 05:01:31;;;;;;;17.10;10.60;;;2.70;94.00;;;;;;5001926;28;20454;-91
2021/01/25 05:03:57;;;;;;;15.77;10.60;;;2.70;94.00;;;;;;5028017;28;20063;-90
2021/01/25 05:06:23;;;;;;;16.38;9.98;;;2.70;94.00;;;;;;5022433;28;20029;-91
2021/01/25 05:08:48;;;;;;;17.25;11.32;;;2.70;94.00;;;;;;4994412;28;20413;-91
2021/01/25 05:11:18;;;;;;;18.92;10.40;;;2.60;93.90;;;;;;4992319;28;20497;-91
2021/01/25 05:13:44;;;;;;;16.80;10.00;;;2.60;94.00;;;;;;5010534;28;20044;-91
2021/01/25 05:16:23;;;;;;;18.05;11.35;;;2.60;94.00;;;;;;5026053;28;20076;-90
2021/01/25 05:18:57;;;;;;;16.15;9.85;;;2.60;93.90;;;;;;5001345;28;20125;-91
2021/01/25 05:21:43;;;;;;;17.35;9.82;;;2.60;93.90;;;;;;5014430;28;20021;-91
2021/01/25 05:24:15;;;;;;;15.48;10.35;;;2.50;93.90;;;;;;5047714;28;20022;-91
2021/01/25 05:26:52;;;;;;;18.00;11.25;;;2.50;93.90;;;;;;5017846;28;20021;-90
2021/01/25 05:29:28;;;;;;;16.02;10.18;;;2.50;93.90;;;;;;5005420;28;20095;-91
2021/01/25 05:31:59;;;;;;;18.23;10.82;;;2.50;93.90;;;;;;4984856;28;20040;-90
2021/01/25 05:34:24;;;;;;;16.83;9.80;;;2.40;93.90;;;;;;5017999;28;20040;-91
2021/01/25 05:36:50;;;;;;;18.00;10.77;;;2.40;93.80;;;;;;5006142;28;20441;-91
2021/01/25 05:39:17;;;;;;;15.95;10.60;;;2.40;93.80;;;;;;5003109;28;20067;-91
2021/01/25 05:41:56;;;;;;;17.17;10.93;;;2.40;93.80;;;;;;5035635;28;20061;-91
2021/01/25 05:44:22;;;;;;;15.73;9.82;;;2.40;93.80;;;;;;5017013;28;20508;-91
2021/01/25 05:46:48;;;;;;;16.10;10.98;;;2.30;93.80;;;;;;5010393;28;20033;-91
2021/01/25 05:49:24;;;;;;;16.83;11.00;;;2.30;93.80;;;;;;5031583;28;20155;-90
2021/01/25 05:51:53;;;;;;;17.60;11.52;;;2.30;93.80;;;;;;5027060;28;20037;-91
2021/01/25 05:54:22;;;;;;;17.52;11.50;;;2.30;93.80;;;;;;5031293;28;20536;-92
2021/01/25 05:56:47;;;;;;;16.60;10.93;;;2.30;93.80;;;;;;5034011;28;20042;-91
2021/01/25 05:59:13;;;;;;;18.90;10.75;;;2.20;93.80;;;;;;5005025;28;20025;-90
2021/01/25 06:01:39;;;;;;;22.00;11.55;;;2.20;93.80;;;;;;5021546;28;20025;-91
2021/01/25 06:04:06;;;;;;;17.25;11.20;;;2.20;93.80;;;;;;5023102;28;20056;-92
2021/01/25 06:06:37;;;;;;;18.98;12.32;;;2.20;93.80;;;;;;5017335;28;20052;-91
2021/01/25 06:09:13;;;;;;;17.58;11.43;;;2.20;93.90;;;;;;5017613;28;20033;-91
2021/01/25 06:11:44;;;;;;;18.95;12.18;;;2.20;93.90;;;;;;5034503;28;20072;-91
2021/01/25 06:14:32;;;;;;;17.98;11.75;;;2.20;93.90;;;;;;5023254;28;20037;-91
2021/01/25 06:16:58;;;;;;;18.63;11.82;;;2.20;93.90;;;;;;5013381;28;20017;-91
2021/01/25 06:19:28;;;;;;;17.27;11.85;;;2.10;93.90;;;;;;5008893;28;20025;-91
2021/01/25 06:21:55;;;;;;;20.55;12.02;;;2.10;93.90;;;;;;5022460;28;20025;-92
2021/01/25 06:24:22;;;;;;;18.63;12.13;;;2.10;93.90;;;;;;5022044;28;20030;-92
2021/01/25 06:26:49;;;;;;;19.73;11.93;;;2.10;93.90;;;;;;5034686;28;20029;-88
2021/01/25 06:29:19;;;;;;;20.95;13.23;;;2.10;93.90;;;;;;5017286;28;20017;-92
2021/01/25 06:32:04;;;;;;;21.35;12.73;;;2.10;93.90;;;;;;5035020;28;20031;-88
2021/01/25 06:34:30;;;;;;;21.00;12.75;;;2.10;93.90;;;;;;5033703;28;20022;-90
2021/01/25 06:36:56;;;;;;;19.20;11.95;;;2.10;93.90;;;;;;5023402;28;20068;-91
2021/01/25 06:39:42;;;;;;;19.33;13.02;;;2.10;94.00;;;;;;5037295;28;20052;-94
2021/01/25 06:42:15;;;;;;;18.38;12.75;;;2.10;94.00;;;;;;5023692;28;20465;-93
2021/01/25 06:44:43;;;;;;;19.77;12.20;;;2.10;94.00;;;;;;5017581;28;20064;-93
2021/01/25 06:47:13;;;;;;;21.88;13.75;;;2.10;94.00;;;;;;5035440;28;20022;-91
2021/01/25 06:49:39;;;;;;;20.80;13.02;;;2.00;93.90;;;;;;5034341;28;20018;-93
2021/01/25 06:52:11;;;;;;;21.10;13.32;;;2.00;94.00;;;;;;5026762;28;20033;-93
2021/01/25 06:54:43;;;;;;;22.23;13.48;;;2.00;94.00;;;;;;5032014;28;20067;-92
2021/01/25 06:57:19;;;;;;;;;;;;;;;;;;;;;
2021/01/25 06:59:52;;;;;;;22.80;13.80;;;2.00;94.00;;;;;;5027723;28;20035;-94
2021/01/25 07:02:23;;;;;;;20.58;12.93;;;2.00;94.00;;;;;;5015322;28;20437;-94
2021/01/25 07:04:57;;;;;;;20.23;12.85;;;2.00;93.90;;;;;;5017493;28;20032;-93
2021/01/25 07:07:28;;;;;;;21.98;13.50;;;2.00;93.90;;;;;;5035739;28;20024;-94
2021/01/25 07:09:58;;;;;;;20.67;12.95;;;1.90;93.90;;;;;;5036524;28;20024;-93
2021/01/25 07:12:28;;;;;;;18.77;12.43;;;2.00;93.90;;;;;;5032721;28;20045;-93
2021/01/25 07:15:04;;;;;;;;;;;;;;;;;;;;;
2021/01/25 07:17:32;;;;;;;19.75;12.70;;;1.90;93.90;;;;;;5040976;28;20053;-92
2021/01/25 07:20:00;;;;;;;21.10;13.10;;;1.90;93.90;;;;;;5035584;28;20071;-93
2021/01/25 07:22:28;;;;;;;21.13;13.50;;;1.90;93.90;;;;;;5043170;28;20040;-92
2021/01/25 07:24:54;;;;;;;22.33;13.45;;;1.90;93.90;;;;;;5053950;28;20041;-92
2021/01/25 07:27:22;;;;;;;21.10;13.13;;;1.90;93.90;;;;;;5027434;28;20033;-94
2021/01/25 07:29:50;;;;;;;19.23;12.77;;;1.80;93.90;;;;;;5000520;28;20030;-93
2021/01/25 07:32:16;;;;;;;20.83;13.40;;;1.80;93.80;;;;;;5034771;28;20045;-92
2021/01/25 07:34:48;;;;;;;21.23;13.32;;;1.80;93.90;;;;;;5033042;28;20041;-92
2021/01/25 07:37:16;;;;;;;23.98;15.02;;;1.80;93.90;;;;;;5013092;28;20050;-91
2021/01/25 07:39:48;;;;;;;23.40;13.95;;;1.80;93.80;;;;;;5012747;28;20071;-93
2021/01/25 07:42:21;;;;;;;23.15;14.73;;;1.80;93.80;;;;;;5008582;28;20030;-93
2021/01/25 07:44:48;;;;;;;23.08;13.98;;;1.80;93.80;;;;;;5027364;28;20025;-92
2021/01/25 07:47:20;;;;;;;24.42;15.98;;;1.80;93.80;;;;;;5030287;28;20028;-91
2021/01/25 07:49:46;;;;;;;23.63;15.15;;;1.70;93.70;;;;;;5020873;28;20363;-93
2021/01/25 07:52:16;;;;;;;25.73;15.20;;;1.70;93.80;;;;;;5033268;28;20040;-93
2021/01/25 07:54:42;;;;;;;25.75;16.10;;;1.70;93.80;;;;;;5046576;28;20029;-89
2021/01/25 07:57:23;;;;;;;27.85;16.27;;;1.70;93.80;;;;;;5025763;28;20461;-90
2021/01/25 07:59:52;;;;;;;28.90;17.08;;;1.70;93.70;;;;;;5023286;28;20028;-91
2021/01/25 08:02:20;;;;;;;25.88;16.63;;;1.60;93.70;;;;;;4994823;28;20049;-90
2021/01/25 08:04:46;;;;;;;27.02;16.35;;;1.60;93.80;;;;;;5035602;28;20100;-93
2021/01/25 08:07:15;;;;;;;24.92;15.82;;;1.60;93.80;;;;;;5037445;28;20025;-92
2021/01/25 08:09:43;;;;;;;27.50;15.85;;;1.60;93.80;;;;;;5015994;28;20027;-90
2021/01/25 08:12:10;;;;;;;26.83;16.80;;;1.60;93.90;;;;;;5009359;28;20033;-93
2021/01/25 08:14:45;;;;;;;25.92;15.90;;;1.60;93.80;;;;;;5016760;28;20028;-92
2021/01/25 08:17:22;;;;;;;22.00;14.45;;;1.60;93.90;;;;;;5012453;28;20036;-93
2021/01/25 08:20:03;;;;;;;25.20;14.20;;;1.60;93.90;;;;;;5035172;28;20501;-91
2021/01/25 08:22:48;;;;;;;23.13;14.88;;;1.60;93.90;;;;;;5009906;28;20028;-91
2021/01/25 08:25:18;;;;;;;24.08;13.40;;;1.60;93.90;;;;;;5016410;28;20052;-91
2021/01/25 08:28:01;;;;;;;19.42;13.05;;;1.60;93.90;;;;;;5023697;28;20036;-92
2021/01/25 08:30:47;;;;;;;22.58;12.82;;;1.60;93.90;;;;;;5019605;28;20018;-91
2021/01/25 08:33:24;;;;;;;23.48;14.55;;;1.60;93.90;;;;;;5007989;28;20032;-92
2021/01/25 08:35:50;;;;;;;24.05;14.55;;;1.60;93.90;;;;;;5020068;28;20095;-92
2021/01/25 08:38:37;;;;;;;23.05;14.80;;;1.70;94.00;;;;;;5017172;28;20030;-92
2021/01/25 08:41:21;;;;;;;24.02;15.25;;;1.60;94.00;;;;;;5020352;28;20083;-92
2021/01/25 08:43:53;;;;;;;24.80;15.77;;;1.70;94.00;;;;;;5037200;28;20486;-92
2021/01/25 08:46:25;;;;;;;26.67;17.30;;;1.70;94.00;;;;;;5019812;28;20022;-90
2021/01/25 08:48:51;;;;;;;30.15;18.83;;;1.70;94.00;;;;;;5008701;28;20018;-92
2021/01/25 08:51:29;;;;;;;28.45;18.08;;;1.70;93.90;;;;;;5002976;28;20033;-90
2021/01/25 08:54:26;;;;;;;38.25;23.90;;;1.70;94.00;;;;;;5036589;28;20037;-91
2021/01/25 08:56:52;;;;;;;33.08;21.17;;;1.60;93.80;;;;;;5018179;28;20041;-93
2021/01/25 08:59:29;;;;;;;28.25;18.35;;;1.70;93.80;;;;;;4995682;28;20034;-93
2021/01/25 09:01:55;;;;;;;32.55;19.80;;;1.60;93.90;;;;;;5010105;28;20061;-92
2021/01/25 09:04:21;;;;;;;30.65;19.55;;;1.60;93.90;;;;;;4998147;28;20026;-93
2021/01/25 09:06:52;;;;;;;27.63;18.33;;;1.70;94.00;;;;;;4999851;28;20402;-93
2021/01/25 09:09:19;;;;;;;31.55;18.63;;;1.70;94.10;;;;;;5019409;28;20036;-93
2021/01/25 09:11:45;;;;;;;24.95;15.80;;;1.70;94.10;;;;;;5018436;28;20172;-93
2021/01/25 09:14:12;;;;;;;25.30;15.63;;;1.80;94.50;;;;;;5004791;28;20080;-92
2021/01/25 09:16:37;;;;;;;21.63;14.68;;;1.80;94.20;;;;;;5008570;28;20022;-92
2021/01/25 09:19:03;;;;;;;22.08;14.90;;;1.80;94.30;;;;;;5002411;28;20026;-93
2021/01/25 09:21:29;;;;;;;25.00;13.68;;;1.90;94.30;;;;;;5016047;28;20375;-87
2021/01/25 09:23:56;;;;;;;23.42;14.43;;;2.00;94.40;;;;;;5002297;28;20379;-90
2021/01/25 09:26:22;;;;;;;25.73;15.95;;;2.00;94.40;;;;;;5034356;28;20527;-90
2021/01/25 09:28:48;;;;;;;21.20;14.43;;;2.10;94.40;;;;;;5036169;28;20021;-92
2021/01/25 09:31:16;;;;;;;21.63;13.95;;;2.10;94.50;;;;;;5003037;28;20053;-92
2021/01/25 09:33:42;;;;;;;21.60;14.00;;;2.20;94.50;;;;;;5018802;28;20040;-92
2021/01/25 09:36:08;;;;;;;23.80;14.60;;;2.20;94.50;;;;;;5005191;28;20045;-91
2021/01/25 09:38:33;;;;;;;20.67;13.20;;;2.30;94.60;;;;;;5027860;28;20017;-93
2021/01/25 09:40:59;;;;;;;20.88;13.00;;;2.30;94.70;;;;;;5035040;28;20371;-92
2021/01/25 09:43:24;;;;;;;20.27;11.82;;;2.40;94.60;;;;;;5035245;28;20037;-91
2021/01/25 09:45:51;;;;;;;20.85;13.20;;;2.50;94.60;;;;;;5034417;28;20032;-92
2021/01/25 09:48:16;;;;;;;23.30;14.00;;;2.50;94.60;;;;;;5035841;28;20076;-93
2021/01/25 09:50:43;;;;;;;23.52;13.82;;;2.60;94.70;;;;;;5034742;28;20061;-92
2021/01/25 09:53:17;;;;;;;20.02;12.48;;;2.60;94.70;;;;;;5034713;28;20504;-91
2021/01/25 09:55:42;;;;;;;25.80;14.48;;;2.70;94.70;;;;;;5034467;28;20028;-93
2021/01/25 09:58:08;;;;;;;20.17;13.43;;;2.70;94.70;;;;;;5031215;28;20442;-90
2021/01/25 10:00:34;;;;;;;25.00;15.82;;;2.80;94.70;;;;;;5025816;28;20032;-93
2021/01/25 10:02:59;;;;;;;26.05;15.65;;;2.80;94.60;;;;;;5035167;28;20360;-93
2021/01/25 10:05:25;;;;;;;31.80;18.45;;;2.90;94.60;;;;;;5004142;28;20038;-92
2021/01/25 10:07:51;;;;;;;26.60;16.95;;;2.90;94.60;;;;;;5020591;28;20026;-92
2021/01/25 10:10:19;;;;;;;29.13;17.75;;;3.00;94.60;;;;;;4986645;28;20026;-91
2021/01/25 10:12:45;;;;;;;28.30;17.38;;;3.00;94.50;;;;;;5019771;28;20030;-92
2021/01/25 10:15:14;;;;;;;31.95;19.77;;;3.10;94.50;;;;;;5000573;28;20081;-92
2021/01/25 10:17:40;;;;;;;31.15;18.55;;;3.10;94.50;;;;;;5021294;28;20158;-89
2021/01/25 10:20:06;;;;;;;28.50;17.90;;;3.20;94.50;;;;;;5014076;28;20043;-91
2021/01/25 10:22:32;;;;;;;25.63;16.75;;;3.20;94.50;;;;;;5025643;28;20043;-92
2021/01/25 10:24:58;;;;;;;28.63;18.48;;;3.30;94.60;;;;;;5043936;28;20524;-90
2021/01/25 10:27:24;;;;;;;30.02;19.30;;;3.30;94.50;;;;;;5017396;28;20466;-90
2021/01/25 10:29:50;;;;;;;28.05;17.60;;;3.40;94.50;;;;;;5001711;28;20033;-89
2021/01/25 10:32:16;;;;;;;22.13;15.77;;;3.40;94.40;;;;;;5027349;28;20064;-90
2021/01/25 10:34:43;;;;;;;22.83;15.77;;;3.40;94.40;;;;;;5035440;28;20030;-90
2021/01/25 10:37:09;;;;;;;21.30;14.43;;;3.50;94.40;;;;;;5048803;28;20076;-90
2021/01/25 10:39:35;;;;;;;22.20;12.93;;;3.60;94.60;;;;;;5034420;28;20036;-90
2021/01/25 10:42:00;;;;;;;18.35;11.95;;;3.60;94.40;;;;;;5014987;28;20026;-91
2021/01/25 10:44:26;;;;;;;17.33;11.55;;;3.70;94.50;;;;;;5033339;28;20033;-92
2021/01/25 10:46:51;;;;;;;17.33;12.05;;;3.80;94.50;;;;;;5031832;28;20025;-93
2021/01/25 10:49:17;;;;;;;24.38;14.90;;;3.80;94.50;;;;;;5017822;28;20099;-92
2021/01/25 10:51:43;;;;;;;22.30;12.90;;;3.90;94.30;;;;;;5037886;28;20525;-91
2021/01/25 10:54:09;;;;;;;17.40;11.00;;;4.00;94.40;;;;;;5028523;28;20041;-92
2021/01/25 10:56:34;;;;;;;16.98;10.60;;;4.00;94.40;;;;;;5032049;28;20044;-92
2021/01/25 10:59:01;;;;;;;21.63;13.68;;;4.10;94.40;;;;;;5020497;28;20046;-91
2021/01/25 11:01:26;;;;;;;20.02;12.85;;;4.20;94.40;;;;;;5058199;28;20059;-91
2021/01/25 11:03:52;;;;;;;20.98;13.30;;;4.20;94.60;;;;;;5060134;28;20017;-90
2021/01/25 11:06:19;;;;;;;22.92;13.18;;;4.30;94.30;;;;;;5059239;28;20055;-92
2021/01/25 11:08:45;;;;;;;21.98;13.18;;;4.40;94.20;;;;;;5040980;28;20076;-90
2021/01/25 11:11:13;;;;;;;21.10;13.07;;;4.50;94.10;;;;;;5051026;28;20017;-92
2021/01/25 11:13:39;;;;;;;24.48;15.88;;;4.60;94.10;;;;;;5052490;28;20468;-91
2021/01/25 11:16:07;;;;;;;26.92;16.48;;;4.60;94.10;;;;;;5036529;28;20129;-92
2021/01/25 11:18:32;;;;;;;23.38;15.55;;;4.70;94.30;;;;;;5033817;28;20083;-92
2021/01/25 11:20:59;;;;;;;27.70;17.17;;;4.80;93.90;;;;;;5053340;28;20025;-91
2021/01/25 11:23:26;;;;;;;24.70;15.80;;;4.90;93.50;;;;;;5035893;28;20472;-91
2021/01/25 11:25:53;;;;;;;21.92;15.00;;;5.00;93.60;;;;;;5032956;28;20029;-92
2021/01/25 11:28:19;;;;;;;28.48;16.48;;;5.10;93.60;;;;;;5032050;28;20088;-91
2021/01/25 11:30:45;;;;;;;25.27;15.82;;;5.20;93.50;;;;;;5035774;28;20021;-92
2021/01/25 11:33:11;;;;;;;23.95;15.73;;;5.20;93.30;;;;;;5005501;28;20101;-92
2021/01/25 11:35:36;;;;;;;24.63;17.00;;;5.30;93.20;;;;;;5013876;28;20401;-91
2021/01/25 11:38:02;;;;;;;28.63;16.50;;;5.40;92.50;;;;;;5032630;28;20034;-92
2021/01/25 11:40:28;;;;;;;24.50;14.90;;;5.60;92.60;;;;;;5021424;28;20034;-90
2021/01/25 11:42:53;;;;;;;20.20;14.63;;;5.60;92.50;;;;;;5032334;28;20026;-88
2021/01/25 11:45:19;;;;;;;20.73;14.40;;;5.70;92.80;;;;;;5023341;28;20037;-92
2021/01/25 11:47:46;;;;;;;20.58;15.18;;;5.80;92.70;;;;;;4970223;28;20389;-91
2021/01/25 11:50:12;;;;;;;20.75;14.10;;;6.00;92.70;;;;;;5029463;28;20030;-92
2021/01/25 11:52:38;;;;;;;22.30;16.27;;;6.10;92.80;;;;;;4984087;28;20413;-90
2021/01/25 11:55:04;;;;;;;23.13;15.10;;;6.20;92.70;;;;;;5016270;28;20083;-90
2021/01/25 11:57:31;;;;;;;21.40;14.60;;;6.30;92.70;;;;;;5001167;28;20088;-90
2021/01/25 11:59:57;;;;;;;22.48;14.18;;;6.40;92.40;;;;;;5038381;28;20120;-89
2021/01/25 12:02:24;;;;;;;22.58;14.65;;;6.50;92.40;;;;;;4995751;28;20034;-89
2021/01/25 12:04:50;;;;;;;17.00;11.10;;;6.60;92.40;;;;;;5014595;28;20032;-92
2021/01/25 12:07:18;;;;;;;18.02;10.98;;;6.70;92.30;;;;;;5014818;28;20113;-90
2021/01/25 12:09:44;;;;;;;17.88;10.00;;;6.70;92.20;;;;;;5018437;28;20545;-92
2021/01/25 12:12:12;;;;;;;14.25;9.70;;;6.80;91.60;;;;;;5035514;28;20036;-92
2021/01/25 12:14:40;;;;;;;14.65;9.45;;;6.90;91.60;;;;;;5000553;28;20044;-89
2021/01/25 12:17:08;;;;;;;13.63;9.57;;;7.00;91.50;;;;;;5017727;28;20033;-93
2021/01/25 12:19:40;;;;;;;15.52;9.50;;;7.10;91.50;;;;;;5014578;28;20088;-92
2021/01/25 12:22:05;;;;;;;17.80;9.60;;;7.20;91.30;;;;;;5023895;28;20033;-92
2021/01/25 12:24:31;;;;;;;14.77;8.63;;;7.30;91.20;;;;;;5032108;28;20051;-90
2021/01/25 12:26:59;;;;;;;13.70;7.60;;;7.40;90.70;;;;;;5012266;28;20049;-92
2021/01/25 12:29:25;;;;;;;10.25;6.78;;;7.50;88.50;;;;;;5010401;28;20030;-90
2021/01/25 12:31:51;;;;;;;11.95;7.38;;;7.50;87.00;;;;;;5025364;28;20596;-90
2021/01/25 12:34:17;;;;;;;10.80;6.65;;;7.60;86.50;;;;;;4998630;28;20030;-91
2021/01/25 12:36:42;;;;;;;12.80;6.38;;;7.60;86.60;;;;;;5006609;28;20180;-91
2021/01/25 12:39:08;;;;;;;9.30;6.28;;;7.70;86.50;;;;;;4995341;28;20057;-90
2021/01/25 12:41:34;;;;;;;10.80;5.90;;;7.70;86.70;;;;;;4980340;28;20033;-89
2021/01/25 12:44:01;;;;;;;9.35;6.35;;;7.80;87.50;;;;;;5015027;28;20441;-90
2021/01/25 12:46:27;;;;;;;9.65;5.60;;;7.80;88.10;;;;;;4999709;28;20025;-92